sensor_id;sensor_type;location;lat;lon;timestamp;temperature;humidity
20574;DHT22;10445;50.216;7.912;2024-02-28T00:00:47;3.00;99.90
20574;DHT22;10445;50.216;7.912;2024-02-28T00:03:15;3.00;99.90
20574;DHT22;10445;50.216;7.912;2024-02-28T00:05:43;3.00;99.90
20574;DHT22;10445;50.216;7.912;2024-02-28T00:08:12;3.00;99.90
20574;DHT22;10445;50.216;7.912;2024-02-28T00:10:40;2.90;99.90
20574;DHT22;10445;50.216;7.912;2024-02-28T00:13:08;2.90;99.90
20574;DHT22;10445;50.216;7.912;2024-02-28T00:15:38;2.80;99.90
20574;DHT22;10445;50.216;7.912;2024-02-28T00:18:06;2.80;99.90
20574;DHT22;10445;50.216;7.912;2024-02-28T00:20:34;2.70;99.90
20574;DHT22;10445;50.216;7.912;2024-02-28T00:23:03;2.70;99.90
20574;DHT22;10445;50.216;7.912;2024-02-28T00:25:31;2.70;99.90
20574;DHT22;10445;50.216;7.912;2024-02-28T00:27:59;2.70;99.90
20574;DHT22;10445;50.216;7.912;2024-02-28T00:30:27;2.80;99.90
20574;DHT22;10445;50.216;7.912;2024-02-28T00:32:57;2.80;99.90
20574;DHT22;10445;50.216;7.912;2024-02-28T00:35:25;2.70;99.90
20574;DHT22;10445;50.216;7.912;2024-02-28T00:37:53;2.60;99.90
20574;DHT22;10445;50.216;7.912;2024-02-28T00:40:21;2.60;99.90
20574;DHT22;10445;50.216;7.912;2024-02-28T00:42:49;2.60;99.90
20574;DHT22;10445;50.216;7.912;2024-02-28T00:45:17;2.60;99.90
20574;DHT22;10445;50.216;7.912;2024-02-28T00:47:45;2.60;99.90
20574;DHT22;10445;50.216;7.912;2024-02-28T00:50:15;2.60;99.90
20574;DHT22;10445;50.216;7.912;2024-02-28T00:52:43;2.60;99.90
20574;DHT22;10445;50.216;7.912;2024-02-28T00:55:11;2.60;99.90
20574;DHT22;10445;50.216;7.912;2024-02-28T00:57:39;2.60;99.90
20574;DHT22;10445;50.216;7.912;2024-02-28T01:00:08;2.60;99.90
20574;DHT22;10445;50.216;7.912;2024-02-28T01:02:37;2.70;99.90
20574;DHT22;10445;50.216;7.912;2024-02-28T01:05:05;2.70;99.90
20574;DHT22;10445;50.216;7.912;2024-02-28T01:07:35;2.70;99.90
20574;DHT22;10445;50.216;7.912;2024-02-28T01:10:04;2.70;99.90
20574;DHT22;10445;50.216;7.912;2024-02-28T01:12:32;2.70;99.90
20574;DHT22;10445;50.216;7.912;2024-02-28T01:15:00;2.70;99.90
20574;DHT22;10445;50.216;7.912;2024-02-28T01:17:28;2.60;99.90
20574;DHT22;10445;50.216;7.912;2024-02-28T01:19:57;2.60;99.90
20574;DHT22;10445;50.216;7.912;2024-02-28T01:22:25;2.70;99.90
20574;DHT22;10445;50.216;7.912;2024-02-28T01:24:54;2.70;99.90
20574;DHT22;10445;50.216;7.912;2024-02-28T01:27:22;2.60;99.90
20574;DHT22;10445;50.216;7.912;2024-02-28T01:29:50;2.60;99.90
20574;DHT22;10445;50.216;7.912;2024-02-28T01:32:20;2.60;99.90
20574;DHT22;10445;50.216;7.912;2024-02-28T01:34:48;2.60;99.90
20574;DHT22;10445;50.216;7.912;2024-02-28T01:37:16;2.60;99.90
20574;DHT22;10445;50.216;7.912;2024-02-28T01:39:44;2.50;99.90
20574;DHT22;10445;50.216;7.912;2024-02-28T01:42:15;2.50;99.90
20574;DHT22;10445;50.216;7.912;2024-02-28T01:44:45;2.60;99.90
20574;DHT22;10445;50.216;7.912;2024-02-28T01:47:15;2.60;99.90
20574;DHT22;10445;50.216;7.912;2024-02-28T01:49:45;2.70;99.90
20574;DHT22;10445;50.216;7.912;2024-02-28T01:52:14;2.70;99.90
20574;DHT22;10445;50.216;7.912;2024-02-28T01:54:42;2.70;99.90
20574;DHT22;10445;50.216;7.912;2024-02-28T01:57:11;2.60;99.90
20574;DHT22;10445;50.216;7.912;2024-02-28T01:59:40;2.60;99.90
20574;DHT22;10445;50.216;7.912;2024-02-28T02:02:09;2.60;99.90
20574;DHT22;10445;50.216;7.912;2024-02-28T02:04:37;2.60;99.90
20574;DHT22;10445;50.216;7.912;2024-02-28T02:07:06;2.70;99.90
20574;DHT22;10445;50.216;7.912;2024-02-28T02:09:35;2.70;99.90
20574;DHT22;10445;50.216;7.912;2024-02-28T02:12:03;2.70;99.90
20574;DHT22;10445;50.216;7.912;2024-02-28T02:14:31;2.70;99.90
20574;DHT22;10445;50.216;7.912;2024-02-28T02:17:00;2.60;99.90
20574;DHT22;10445;50.216;7.912;2024-02-28T02:19:28;2.60;99.90
20574;DHT22;10445;50.216;7.912;2024-02-28T02:21:58;2.60;99.90
20574;DHT22;10445;50.216;7.912;2024-02-28T02:24:28;2.60;99.90
20574;DHT22;10445;50.216;7.912;2024-02-28T02:26:57;2.60;99.90
20574;DHT22;10445;50.216;7.912;2024-02-28T02:29:26;2.50;99.90
20574;DHT22;10445;50.216;7.912;2024-02-28T02:31:55;2.60;99.90
20574;DHT22;10445;50.216;7.912;2024-02-28T02:34:23;2.60;99.90
20574;DHT22;10445;50.216;7.912;2024-02-28T02:36:51;2.50;99.90
20574;DHT22;10445;50.216;7.912;2024-02-28T02:39:19;2.50;99.90
20574;DHT22;10445;50.216;7.912;2024-02-28T02:41:48;2.40;99.90
20574;DHT22;10445;50.216;7.912;2024-02-28T02:44:17;2.50;99.90
20574;DHT22;10445;50.216;7.912;2024-02-28T02:46:45;2.50;99.90
20574;DHT22;10445;50.216;7.912;2024-02-28T02:49:13;2.40;99.90
20574;DHT22;10445;50.216;7.912;2024-02-28T02:51:41;2.30;99.90
20574;DHT22;10445;50.216;7.912;2024-02-28T02:54:10;2.30;99.90
20574;DHT22;10445;50.216;7.912;2024-02-28T02:56:41;2.40;99.90
20574;DHT22;10445;50.216;7.912;2024-02-28T02:59:11;2.50;99.90
20574;DHT22;10445;50.216;7.912;2024-02-28T03:01:40;2.40;99.90
20574;DHT22;10445;50.216;7.912;2024-02-28T03:04:08;2.40;99.90
20574;DHT22;10445;50.216;7.912;2024-02-28T03:06:36;2.30;99.90
20574;DHT22;10445;50.216;7.912;2024-02-28T03:09:04;2.30;99.90
20574;DHT22;10445;50.216;7.912;2024-02-28T03:11:34;2.30;99.90
20574;DHT22;10445;50.216;7.912;2024-02-28T03:14:02;2.30;99.90
20574;DHT22;10445;50.216;7.912;2024-02-28T03:16:32;2.30;99.90
20574;DHT22;10445;50.216;7.912;2024-02-28T03:19:04;2.40;99.90
20574;DHT22;10445;50.216;7.912;2024-02-28T03:21:32;2.50;99.90
20574;DHT22;10445;50.216;7.912;2024-02-28T03:24:01;2.40;99.90
20574;DHT22;10445;50.216;7.912;2024-02-28T03:26:29;2.30;99.90
20574;DHT22;10445;50.216;7.912;2024-02-28T03:28:57;2.30;99.90
20574;DHT22;10445;50.216;7.912;2024-02-28T03:31:25;2.30;99.90
20574;DHT22;10445;50.216;7.912;2024-02-28T03:33:55;2.30;99.90
20574;DHT22;10445;50.216;7.912;2024-02-28T03:36:23;2.30;99.90
20574;DHT22;10445;50.216;7.912;2024-02-28T03:38:51;2.30;99.90
20574;DHT22;10445;50.216;7.912;2024-02-28T03:41:19;2.40;99.90
20574;DHT22;10445;50.216;7.912;2024-02-28T03:43:47;2.50;99.90
20574;DHT22;10445;50.216;7.912;2024-02-28T03:46:15;2.50;99.90
20574;DHT22;10445;50.216;7.912;2024-02-28T03:48:43;2.60;99.90
20574;DHT22;10445;50.216;7.912;2024-02-28T03:51:13;2.60;99.90
20574;DHT22;10445;50.216;7.912;2024-02-28T03:53:41;2.50;99.90
20574;DHT22;10445;50.216;7.912;2024-02-28T03:56:08;2.50;99.90
20574;DHT22;10445;50.216;7.912;2024-02-28T03:58:36;2.50;99.90
20574;DHT22;10445;50.216;7.912;2024-02-28T04:01:04;2.60;99.90
20574;DHT22;10445;50.216;7.912;2024-02-28T04:03:32;2.50;99.90
20574;DHT22;10445;50.216;7.912;2024-02-28T04:06:00;2.50;99.90
20574;DHT22;10445;50.216;7.912;2024-02-28T04:08:29;2.60;99.90
20574;DHT22;10445;50.216;7.912;2024-02-28T04:10:57;2.60;99.90
20574;DHT22;10445;50.216;7.912;2024-02-28T04:13:25;2.60;99.90
20574;DHT22;10445;50.216;7.912;2024-02-28T04:15:54;2.50;99.90
20574;DHT22;10445;50.216;7.912;2024-02-28T04:18:22;2.50;99.90
20574;DHT22;10445;50.216;7.912;2024-02-28T04:20:50;2.40;99.90
20574;DHT22;10445;50.216;7.912;2024-02-28T04:23:18;2.50;99.90
20574;DHT22;10445;50.216;7.912;2024-02-28T04:25:48;2.50;99.90
20574;DHT22;10445;50.216;7.912;2024-02-28T04:28:16;2.40;99.90
20574;DHT22;10445;50.216;7.912;2024-02-28T04:30:44;2.30;99.90
20574;DHT22;10445;50.216;7.912;2024-02-28T04:33:12;2.30;99.90
20574;DHT22;10445;50.216;7.912;2024-02-28T04:35:40;2.30;99.90
20574;DHT22;10445;50.216;7.912;2024-02-28T04:38:08;2.30;99.90
20574;DHT22;10445;50.216;7.912;2024-02-28T04:40:36;2.40;99.90
20574;DHT22;10445;50.216;7.912;2024-02-28T04:43:05;2.40;99.90
20574;DHT22;10445;50.216;7.912;2024-02-28T04:45:33;2.30;99.90
20574;DHT22;10445;50.216;7.912;2024-02-28T04:48:03;2.30;99.90
20574;DHT22;10445;50.216;7.912;2024-02-28T04:50:33;2.30;99.90
20574;DHT22;10445;50.216;7.912;2024-02-28T04:53:01;2.40;99.90
20574;DHT22;10445;50.216;7.912;2024-02-28T04:55:30;2.40;99.90
20574;DHT22;10445;50.216;7.912;2024-02-28T04:57:58;2.40;99.90
20574;DHT22;10445;50.216;7.912;2024-02-28T05:00:27;2.40;99.90
20574;DHT22;10445;50.216;7.912;2024-02-28T05:02:55;2.40;99.90
20574;DHT22;10445;50.216;7.912;2024-02-28T05:05:23;2.30;99.90
20574;DHT22;10445;50.216;7.912;2024-02-28T05:07:51;2.30;99.90
20574;DHT22;10445;50.216;7.912;2024-02-28T05:10:20;2.30;99.90
20574;DHT22;10445;50.216;7.912;2024-02-28T05:12:48;2.30;99.90
20574;DHT22;10445;50.216;7.912;2024-02-28T05:15:16;2.40;99.90
20574;DHT22;10445;50.216;7.912;2024-02-28T05:17:46;2.30;99.90
20574;DHT22;10445;50.216;7.912;2024-02-28T05:20:14;2.40;99.90
20574;DHT22;10445;50.216;7.912;2024-02-28T05:22:42;2.40;99.90
20574;DHT22;10445;50.216;7.912;2024-02-28T05:25:10;2.50;99.90
20574;DHT22;10445;50.216;7.912;2024-02-28T05:27:38;2.50;99.90
20574;DHT22;10445;50.216;7.912;2024-02-28T05:30:07;2.50;99.90
20574;DHT22;10445;50.216;7.912;2024-02-28T05:32:36;2.50;99.90
20574;DHT22;10445;50.216;7.912;2024-02-28T05:35:06;2.50;99.90
20574;DHT22;10445;50.216;7.912;2024-02-28T05:37:34;2.50;99.90
20574;DHT22;10445;50.216;7.912;2024-02-28T05:40:02;2.60;99.90
20574;DHT22;10445;50.216;7.912;2024-02-28T05:42:30;2.60;99.90
20574;DHT22;10445;50.216;7.912;2024-02-28T05:44:58;2.60;99.90
20574;DHT22;10445;50.216;7.912;2024-02-28T05:47:26;2.50;99.90
20574;DHT22;10445;50.216;7.912;2024-02-28T05:49:55;2.60;99.90
20574;DHT22;10445;50.216;7.912;2024-02-28T05:52:26;2.60;99.90
20574;DHT22;10445;50.216;7.912;2024-02-28T05:54:54;2.60;99.90
20574;DHT22;10445;50.216;7.912;2024-02-28T05:57:22;2.50;99.90
20574;DHT22;10445;50.216;7.912;2024-02-28T05:59:51;2.50;99.90
20574;DHT22;10445;50.216;7.912;2024-02-28T06:02:19;2.50;99.90
20574;DHT22;10445;50.216;7.912;2024-02-28T06:04:47;2.50;99.90
20574;DHT22;10445;50.216;7.912;2024-02-28T06:07:15;2.50;99.90
20574;DHT22;10445;50.216;7.912;2024-02-28T06:09:44;2.50;99.90
20574;DHT22;10445;50.216;7.912;2024-02-28T06:12:12;2.50;99.90
20574;DHT22;10445;50.216;7.912;2024-02-28T06:14:40;2.50;99.90
20574;DHT22;10445;50.216;7.912;2024-02-28T06:17:08;2.40;99.90
20574;DHT22;10445;50.216;7.912;2024-02-28T06:19:36;2.40;99.90
20574;DHT22;10445;50.216;7.912;2024-02-28T06:22:04;2.40;99.90
20574;DHT22;10445;50.216;7.912;2024-02-28T06:24:34;2.40;99.90
20574;DHT22;10445;50.216;7.912;2024-02-28T06:27:04;2.40;99.90
20574;DHT22;10445;50.216;7.912;2024-02-28T06:29:35;2.40;99.90
20574;DHT22;10445;50.216;7.912;2024-02-28T06:32:03;2.50;99.90
20574;DHT22;10445;50.216;7.912;2024-02-28T06:34:31;2.50;99.90
20574;DHT22;10445;50.216;7.912;2024-02-28T06:36:59;2.60;99.90
20574;DHT22;10445;50.216;7.912;2024-02-28T06:39:28;2.60;99.90
20574;DHT22;10445;50.216;7.912;2024-02-28T06:41:56;2.60;99.90
20574;DHT22;10445;50.216;7.912;2024-02-28T06:44:25;2.60;99.90
20574;DHT22;10445;50.216;7.912;2024-02-28T06:46:53;2.60;99.90
20574;DHT22;10445;50.216;7.912;2024-02-28T06:49:21;2.50;99.90
20574;DHT22;10445;50.216;7.912;2024-02-28T06:51:49;2.50;99.90
20574;DHT22;10445;50.216;7.912;2024-02-28T06:54:17;2.50;99.90
20574;DHT22;10445;50.216;7.912;2024-02-28T06:56:45;2.50;99.90
20574;DHT22;10445;50.216;7.912;2024-02-28T06:59:13;2.40;99.90
20574;DHT22;10445;50.216;7.912;2024-02-28T07:01:43;2.50;99.90
20574;DHT22;10445;50.216;7.912;2024-02-28T07:04:11;2.50;99.90
20574;DHT22;10445;50.216;7.912;2024-02-28T07:06:39;2.50;99.90
20574;DHT22;10445;50.216;7.912;2024-02-28T07:09:07;2.50;99.90
20574;DHT22;10445;50.216;7.912;2024-02-28T07:11:37;2.50;99.90
20574;DHT22;10445;50.216;7.912;2024-02-28T07:14:05;2.50;99.90
20574;DHT22;10445;50.216;7.912;2024-02-28T07:16:33;2.50;99.90
20574;DHT22;10445;50.216;7.912;2024-02-28T07:19:02;2.50;99.90
20574;DHT22;10445;50.216;7.912;2024-02-28T07:21:31;2.50;99.90
20574;DHT22;10445;50.216;7.912;2024-02-28T07:24:00;2.60;99.90
20574;DHT22;10445;50.216;7.912;2024-02-28T07:26:29;2.50;99.90
20574;DHT22;10445;50.216;7.912;2024-02-28T07:28:57;2.50;99.90
20574;DHT22;10445;50.216;7.912;2024-02-28T07:31:25;2.60;99.90
20574;DHT22;10445;50.216;7.912;2024-02-28T07:33:53;2.60;99.90
20574;DHT22;10445;50.216;7.912;2024-02-28T07:36:23;2.60;99.90
20574;DHT22;10445;50.216;7.912;2024-02-28T07:38:51;2.70;99.90
20574;DHT22;10445;50.216;7.912;2024-02-28T07:41:19;2.70;99.90
20574;DHT22;10445;50.216;7.912;2024-02-28T07:43:48;2.70;99.90
20574;DHT22;10445;50.216;7.912;2024-02-28T07:46:16;2.80;99.90
20574;DHT22;10445;50.216;7.912;2024-02-28T07:48:44;2.90;99.90
20574;DHT22;10445;50.216;7.912;2024-02-28T07:51:12;2.90;99.90
20574;DHT22;10445;50.216;7.912;2024-02-28T07:53:41;3.00;99.90
20574;DHT22;10445;50.216;7.912;2024-02-28T07:56:15;3.00;99.90
20574;DHT22;10445;50.216;7.912;2024-02-28T07:58:44;3.00;99.90
20574;DHT22;10445;50.216;7.912;2024-02-28T08:01:12;3.00;99.90
20574;DHT22;10445;50.216;7.912;2024-02-28T08:03:40;3.00;99.50
20574;DHT22;10445;50.216;7.912;2024-02-28T08:06:10;3.10;98.90
20574;DHT22;10445;50.216;7.912;2024-02-28T08:08:38;3.10;99.20
20574;DHT22;10445;50.216;7.912;2024-02-28T08:11:08;3.20;96.50
20574;DHT22;10445;50.216;7.912;2024-02-28T08:13:36;3.20;94.20
20574;DHT22;10445;50.216;7.912;2024-02-28T08:16:04;3.10;93.60
20574;DHT22;10445;50.216;7.912;2024-02-28T08:18:35;3.20;92.80
20574;DHT22;10445;50.216;7.912;2024-02-28T08:21:03;3.20;92.70
20574;DHT22;10445;50.216;7.912;2024-02-28T08:23:31;3.30;94.10
20574;DHT22;10445;50.216;7.912;2024-02-28T08:25:59;3.30;91.20
20574;DHT22;10445;50.216;7.912;2024-02-28T08:28:29;3.00;88.70
20574;DHT22;10445;50.216;7.912;2024-02-28T08:30:58;3.00;92.20
20574;DHT22;10445;50.216;7.912;2024-02-28T08:33:27;3.00;91.00
20574;DHT22;10445;50.216;7.912;2024-02-28T08:35:55;3.00;92.70
20574;DHT22;10445;50.216;7.912;2024-02-28T08:38:24;3.00;90.90
20574;DHT22;10445;50.216;7.912;2024-02-28T08:40:52;3.20;92.70
20574;DHT22;10445;50.216;7.912;2024-02-28T08:43:20;3.40;91.50
20574;DHT22;10445;50.216;7.912;2024-02-28T08:45:49;3.50;89.40
20574;DHT22;10445;50.216;7.912;2024-02-28T08:48:18;3.40;87.90
20574;DHT22;10445;50.216;7.912;2024-02-28T08:50:46;3.40;88.30
20574;DHT22;10445;50.216;7.912;2024-02-28T08:53:14;3.50;88.70
20574;DHT22;10445;50.216;7.912;2024-02-28T08:55:42;3.60;89.50
20574;DHT22;10445;50.216;7.912;2024-02-28T08:58:10;3.80;85.60
20574;DHT22;10445;50.216;7.912;2024-02-28T09:00:38;3.70;83.60
20574;DHT22;10445;50.216;7.912;2024-02-28T09:03:08;3.70;85.20
20574;DHT22;10445;50.216;7.912;2024-02-28T09:05:36;3.70;84.10
20574;DHT22;10445;50.216;7.912;2024-02-28T09:08:04;3.70;83.00
20574;DHT22;10445;50.216;7.912;2024-02-28T09:10:34;3.70;83.70
20574;DHT22;10445;50.216;7.912;2024-02-28T09:13:02;3.70;79.00
20574;DHT22;10445;50.216;7.912;2024-02-28T09:15:31;3.70;80.20
20574;DHT22;10445;50.216;7.912;2024-02-28T09:17:59;3.80;79.20
20574;DHT22;10445;50.216;7.912;2024-02-28T09:20:29;3.90;80.30
20574;DHT22;10445;50.216;7.912;2024-02-28T09:22:57;4.00;78.00
20574;DHT22;10445;50.216;7.912;2024-02-28T09:25:25;4.00;77.60
20574;DHT22;10445;50.216;7.912;2024-02-28T09:27:55;4.10;79.40
20574;DHT22;10445;50.216;7.912;2024-02-28T09:30:24;4.20;77.50
20574;DHT22;10445;50.216;7.912;2024-02-28T09:32:58;4.20;73.80
20574;DHT22;10445;50.216;7.912;2024-02-28T09:35:26;4.40;76.90
20574;DHT22;10445;50.216;7.912;2024-02-28T09:37:56;4.50;72.40
20574;DHT22;10445;50.216;7.912;2024-02-28T09:40:24;4.70;71.00
20574;DHT22;10445;50.216;7.912;2024-02-28T09:42:53;4.70;68.10
20574;DHT22;10445;50.216;7.912;2024-02-28T09:45:25;4.70;71.50
20574;DHT22;10445;50.216;7.912;2024-02-28T09:47:58;4.60;68.80
20574;DHT22;10445;50.216;7.912;2024-02-28T09:50:27;4.80;72.80
20574;DHT22;10445;50.216;7.912;2024-02-28T09:52:56;4.90;67.20
20574;DHT22;10445;50.216;7.912;2024-02-28T09:55:36;4.90;65.10
20574;DHT22;10445;50.216;7.912;2024-02-28T09:58:05;5.00;63.00
20574;DHT22;10445;50.216;7.912;2024-02-28T10:00:34;4.80;64.30
20574;DHT22;10445;50.216;7.912;2024-02-28T10:03:04;4.90;66.60
20574;DHT22;10445;50.216;7.912;2024-02-28T10:05:33;5.00;63.90
20574;DHT22;10445;50.216;7.912;2024-02-28T10:08:05;5.10;64.80
20574;DHT22;10445;50.216;7.912;2024-02-28T10:10:33;5.30;62.80
20574;DHT22;10445;50.216;7.912;2024-02-28T10:13:01;5.40;60.90
20574;DHT22;10445;50.216;7.912;2024-02-28T10:15:30;5.40;54.50
20574;DHT22;10445;50.216;7.912;2024-02-28T10:17:58;5.30;56.60
20574;DHT22;10445;50.216;7.912;2024-02-28T10:20:26;5.10;59.20
20574;DHT22;10445;50.216;7.912;2024-02-28T10:22:56;5.30;62.80
20574;DHT22;10445;50.216;7.912;2024-02-28T10:25:25;5.40;59.10
20574;DHT22;10445;50.216;7.912;2024-02-28T10:28:00;5.60;59.20
20574;DHT22;10445;50.216;7.912;2024-02-28T10:30:29;5.70;51.50
20574;DHT22;10445;50.216;7.912;2024-02-28T10:32:57;5.70;53.20
20574;DHT22;10445;50.216;7.912;2024-02-28T10:35:26;5.80;54.10
20574;DHT22;10445;50.216;7.912;2024-02-28T10:37:54;5.70;51.10
20574;DHT22;10445;50.216;7.912;2024-02-28T10:40:22;5.60;50.00
20574;DHT22;10445;50.216;7.912;2024-02-28T10:42:53;5.50;52.20
20574;DHT22;10445;50.216;7.912;2024-02-28T10:45:22;5.50;55.60
20574;DHT22;10445;50.216;7.912;2024-02-28T10:48:14;5.50;51.10
20574;DHT22;10445;50.216;7.912;2024-02-28T10:50:44;5.60;51.00
20574;DHT22;10445;50.216;7.912;2024-02-28T10:53:13;5.80;48.60
20574;DHT22;10445;50.216;7.912;2024-02-28T10:55:42;5.80;49.50
20574;DHT22;10445;50.216;7.912;2024-02-28T10:58:14;6.10;51.50
20574;DHT22;10445;50.216;7.912;2024-02-28T11:00:43;6.30;45.10
20574;DHT22;10445;50.216;7.912;2024-02-28T11:03:15;6.50;44.50
20574;DHT22;10445;50.216;7.912;2024-02-28T11:05:44;6.40;38.40
20574;DHT22;10445;50.216;7.912;2024-02-28T11:08:21;6.40;40.50
20574;DHT22;10445;50.216;7.912;2024-02-28T11:10:55;6.70;38.90
20574;DHT22;10445;50.216;7.912;2024-02-28T11:13:25;6.70;37.60
20574;DHT22;10445;50.216;7.912;2024-02-28T11:15:54;6.60;33.60
20574;DHT22;10445;50.216;7.912;2024-02-28T11:18:23;6.60;35.70
20574;DHT22;10445;50.216;7.912;2024-02-28T11:20:51;6.80;35.90
20574;DHT22;10445;50.216;7.912;2024-02-28T11:23:20;6.90;31.90
20574;DHT22;10445;50.216;7.912;2024-02-28T11:25:48;6.60;32.30
20574;DHT22;10445;50.216;7.912;2024-02-28T11:28:16;6.70;32.90
20574;DHT22;10445;50.216;7.912;2024-02-28T11:30:50;6.90;31.30
20574;DHT22;10445;50.216;7.912;2024-02-28T11:33:19;6.90;33.00
20574;DHT22;10445;50.216;7.912;2024-02-28T11:35:54;6.90;30.60
20574;DHT22;10445;50.216;7.912;2024-02-28T11:38:24;6.90;30.00
20574;DHT22;10445;50.216;7.912;2024-02-28T11:40:53;6.70;30.20
20574;DHT22;10445;50.216;7.912;2024-02-28T11:43:22;7.00;32.40
20574;DHT22;10445;50.216;7.912;2024-02-28T11:45:54;7.70;28.60
20574;DHT22;10445;50.216;7.912;2024-02-28T11:48:23;8.10;21.60
20574;DHT22;10445;50.216;7.912;2024-02-28T11:50:52;8.30;14.70
20574;DHT22;10445;50.216;7.912;2024-02-28T11:53:20;8.30;11.90
20574;DHT22;10445;50.216;7.912;2024-02-28T11:55:48;8.40;13.30
20574;DHT22;10445;50.216;7.912;2024-02-28T11:58:17;8.20;13.90
20574;DHT22;10445;50.216;7.912;2024-02-28T12:00:47;8.00;16.40
20574;DHT22;10445;50.216;7.912;2024-02-28T12:03:20;7.80;17.90
20574;DHT22;10445;50.216;7.912;2024-02-28T12:05:48;7.80;21.50
20574;DHT22;10445;50.216;7.912;2024-02-28T12:08:17;7.70;20.60
20574;DHT22;10445;50.216;7.912;2024-02-28T12:10:46;7.70;22.00
20574;DHT22;10445;50.216;7.912;2024-02-28T12:13:18;7.70;22.00
20574;DHT22;10445;50.216;7.912;2024-02-28T12:15:46;7.80;19.60
20574;DHT22;10445;50.216;7.912;2024-02-28T12:18:16;8.20;22.40
20574;DHT22;10445;50.216;7.912;2024-02-28T12:20:45;8.80;13.10
20574;DHT22;10445;50.216;7.912;2024-02-28T12:23:14;10.00;10.20
20574;DHT22;10445;50.216;7.912;2024-02-28T12:25:42;11.20;1.00
20574;DHT22;10445;50.216;7.912;2024-02-28T12:28:10;11.80;1.00
20574;DHT22;10445;50.216;7.912;2024-02-28T12:30:40;11.70;1.00
20574;DHT22;10445;50.216;7.912;2024-02-28T12:33:09;11.40;1.00
20574;DHT22;10445;50.216;7.912;2024-02-28T12:35:39;11.00;1.00
20574;DHT22;10445;50.216;7.912;2024-02-28T12:38:08;10.90;1.00
20574;DHT22;10445;50.216;7.912;2024-02-28T12:40:37;11.30;1.00
20574;DHT22;10445;50.216;7.912;2024-02-28T12:43:05;11.50;1.00
20574;DHT22;10445;50.216;7.912;2024-02-28T12:45:33;11.40;1.00
20574;DHT22;10445;50.216;7.912;2024-02-28T12:48:01;11.20;1.00
20574;DHT22;10445;50.216;7.912;2024-02-28T12:50:29;10.90;1.00
20574;DHT22;10445;50.216;7.912;2024-02-28T12:52:59;10.90;1.00
20574;DHT22;10445;50.216;7.912;2024-02-28T12:55:28;10.70;1.00
20574;DHT22;10445;50.216;7.912;2024-02-28T12:57:56;11.10;1.00
20574;DHT22;10445;50.216;7.912;2024-02-28T13:00:26;11.50;1.00
20574;DHT22;10445;50.216;7.912;2024-02-28T13:02:58;11.80;1.00
20574;DHT22;10445;50.216;7.912;2024-02-28T13:05:26;11.80;1.00
20574;DHT22;10445;50.216;7.912;2024-02-28T13:07:59;11.80;1.00
20574;DHT22;10445;50.216;7.912;2024-02-28T13:10:27;12.10;1.00
20574;DHT22;10445;50.216;7.912;2024-02-28T13:12:55;12.20;1.00
20574;DHT22;10445;50.216;7.912;2024-02-28T13:15:23;12.20;1.00
20574;DHT22;10445;50.216;7.912;2024-02-28T13:17:51;12.70;1.00
20574;DHT22;10445;50.216;7.912;2024-02-28T13:20:20;13.00;1.00
20574;DHT22;10445;50.216;7.912;2024-02-28T13:22:48;12.90;1.00
20574;DHT22;10445;50.216;7.912;2024-02-28T13:25:17;12.80;1.00
20574;DHT22;10445;50.216;7.912;2024-02-28T13:27:46;12.70;1.00
20574;DHT22;10445;50.216;7.912;2024-02-28T13:30:14;12.40;1.00
20574;DHT22;10445;50.216;7.912;2024-02-28T13:32:42;12.10;1.00
20574;DHT22;10445;50.216;7.912;2024-02-28T13:35:13;12.00;1.00
20574;DHT22;10445;50.216;7.912;2024-02-28T13:37:41;11.50;1.00
20574;DHT22;10445;50.216;7.912;2024-02-28T13:40:10;11.60;1.00
20574;DHT22;10445;50.216;7.912;2024-02-28T13:42:40;11.80;1.00
20574;DHT22;10445;50.216;7.912;2024-02-28T13:45:08;11.80;1.00
20574;DHT22;10445;50.216;7.912;2024-02-28T13:47:38;11.90;1.00
20574;DHT22;10445;50.216;7.912;2024-02-28T13:50:06;12.00;1.00
20574;DHT22;10445;50.216;7.912;2024-02-28T13:52:36;12.50;1.00
20574;DHT22;10445;50.216;7.912;2024-02-28T13:55:05;12.90;1.00
20574;DHT22;10445;50.216;7.912;2024-02-28T13:57:35;13.20;1.00
20574;DHT22;10445;50.216;7.912;2024-02-28T14:00:06;13.10;1.00
20574;DHT22;10445;50.216;7.912;2024-02-28T14:02:38;13.10;1.00
20574;DHT22;10445;50.216;7.912;2024-02-28T14:05:06;12.80;1.00
20574;DHT22;10445;50.216;7.912;2024-02-28T14:07:35;12.50;1.00
20574;DHT22;10445;50.216;7.912;2024-02-28T14:10:05;12.20;1.00
20574;DHT22;10445;50.216;7.912;2024-02-28T14:12:33;12.00;1.00
20574;DHT22;10445;50.216;7.912;2024-02-28T14:15:01;11.80;1.00
20574;DHT22;10445;50.216;7.912;2024-02-28T14:17:32;11.70;1.00
20574;DHT22;10445;50.216;7.912;2024-02-28T14:20:00;11.40;1.00
20574;DHT22;10445;50.216;7.912;2024-02-28T14:22:28;11.00;1.00
20574;DHT22;10445;50.216;7.912;2024-02-28T14:24:56;10.70;1.00
20574;DHT22;10445;50.216;7.912;2024-02-28T14:27:24;10.40;1.00
20574;DHT22;10445;50.216;7.912;2024-02-28T14:29:56;10.30;1.00
20574;DHT22;10445;50.216;7.912;2024-02-28T14:32:25;10.00;1.00
20574;DHT22;10445;50.216;7.912;2024-02-28T14:34:54;9.70;1.00
20574;DHT22;10445;50.216;7.912;2024-02-28T14:37:22;9.60;1.00
20574;DHT22;10445;50.216;7.912;2024-02-28T14:39:51;9.50;1.00
20574;DHT22;10445;50.216;7.912;2024-02-28T14:42:19;9.40;1.00
20574;DHT22;10445;50.216;7.912;2024-02-28T14:44:47;9.40;1.00
20574;DHT22;10445;50.216;7.912;2024-02-28T14:47:15;9.30;1.00
20574;DHT22;10445;50.216;7.912;2024-02-28T14:49:43;9.20;1.00
20574;DHT22;10445;50.216;7.912;2024-02-28T14:52:12;9.20;1.00
20574;DHT22;10445;50.216;7.912;2024-02-28T14:54:41;9.30;1.00
20574;DHT22;10445;50.216;7.912;2024-02-28T14:57:11;9.20;1.00
20574;DHT22;10445;50.216;7.912;2024-02-28T14:59:40;9.10;1.00
20574;DHT22;10445;50.216;7.912;2024-02-28T15:02:09;9.20;1.00
20574;DHT22;10445;50.216;7.912;2024-02-28T15:04:38;9.20;1.00
20574;DHT22;10445;50.216;7.912;2024-02-28T15:07:06;9.20;1.00
20574;DHT22;10445;50.216;7.912;2024-02-28T15:09:36;9.30;1.00
20574;DHT22;10445;50.216;7.912;2024-02-28T15:12:07;9.20;1.00
20574;DHT22;10445;50.216;7.912;2024-02-28T15:14:35;9.10;1.00
20574;DHT22;10445;50.216;7.912;2024-02-28T15:17:04;9.10;1.00
20574;DHT22;10445;50.216;7.912;2024-02-28T15:19:32;9.10;1.00
20574;DHT22;10445;50.216;7.912;2024-02-28T15:22:00;9.10;1.00
20574;DHT22;10445;50.216;7.912;2024-02-28T15:24:28;9.10;1.00
20574;DHT22;10445;50.216;7.912;2024-02-28T15:26:57;9.00;1.00
20574;DHT22;10445;50.216;7.912;2024-02-28T15:29:26;9.00;1.00
20574;DHT22;10445;50.216;7.912;2024-02-28T15:31:55;8.90;1.00
20574;DHT22;10445;50.216;7.912;2024-02-28T15:34:23;8.80;1.00
20574;DHT22;10445;50.216;7.912;2024-02-28T15:36:51;8.70;1.00
20574;DHT22;10445;50.216;7.912;2024-02-28T15:39:19;8.70;1.00
20574;DHT22;10445;50.216;7.912;2024-02-28T15:41:47;8.60;1.00
20574;DHT22;10445;50.216;7.912;2024-02-28T15:44:17;8.70;1.00
20574;DHT22;10445;50.216;7.912;2024-02-28T15:46:45;8.60;1.00
20574;DHT22;10445;50.216;7.912;2024-02-28T15:49:13;8.60;1.00
20574;DHT22;10445;50.216;7.912;2024-02-28T15:51:50;8.70;1.00
20574;DHT22;10445;50.216;7.912;2024-02-28T15:54:18;8.70;1.00
20574;DHT22;10445;50.216;7.912;2024-02-28T15:56:46;8.60;1.00